sensor_id;sensor_type;location;lat;lon;timestamp;P1;durP1;ratioP1;P2;durP2;ratioP2
4422;SDS011;2224;49.814;8.650;2023-11-19T00:02:13;10.53;;;9.10;;
4422;SDS011;2224;49.814;8.650;2023-11-19T00:04:38;10.17;;;8.90;;
4422;SDS011;2224;49.814;8.650;2023-11-19T00:07:04;11.83;;;9.17;;
4422;SDS011;2224;49.814;8.650;2023-11-19T00:09:31;10.50;;;8.10;;
4422;SDS011;2224;49.814;8.650;2023-11-19T00:11:57;9.83;;;8.37;;
4422;SDS011;2224;49.814;8.650;2023-11-19T00:14:22;9.73;;;8.70;;
4422;SDS011;2224;49.814;8.650;2023-11-19T00:16:49;8.93;;;7.77;;
4422;SDS011;2224;49.814;8.650;2023-11-19T00:19:16;10.13;;;6.80;;
4422;SDS011;2224;49.814;8.650;2023-11-19T00:21:41;8.27;;;6.77;;
4422;SDS011;2224;49.814;8.650;2023-11-19T00:24:07;9.60;;;6.83;;
4422;SDS011;2224;49.814;8.650;2023-11-19T00:26:33;8.27;;;7.30;;
4422;SDS011;2224;49.814;8.650;2023-11-19T00:28:59;8.50;;;7.20;;
4422;SDS011;2224;49.814;8.650;2023-11-19T00:31:24;7.80;;;6.07;;
4422;SDS011;2224;49.814;8.650;2023-11-19T00:33:52;6.67;;;5.80;;
4422;SDS011;2224;49.814;8.650;2023-11-19T00:36:18;7.80;;;5.93;;
4422;SDS011;2224;49.814;8.650;2023-11-19T00:38:43;8.47;;;6.70;;
4422;SDS011;2224;49.814;8.650;2023-11-19T00:41:09;7.20;;;6.50;;
4422;SDS011;2224;49.814;8.650;2023-11-19T00:43:34;8.07;;;6.43;;
4422;SDS011;2224;49.814;8.650;2023-11-19T00:45:59;6.63;;;5.93;;
4422;SDS011;2224;49.814;8.650;2023-11-19T00:48:26;7.40;;;6.23;;
4422;SDS011;2224;49.814;8.650;2023-11-19T00:50:53;7.27;;;5.80;;
4422;SDS011;2224;49.814;8.650;2023-11-19T00:53:19;6.47;;;5.60;;
4422;SDS011;2224;49.814;8.650;2023-11-19T00:55:44;9.23;;;6.33;;
4422;SDS011;2224;49.814;8.650;2023-11-19T00:58:10;6.83;;;6.13;;
4422;SDS011;2224;49.814;8.650;2023-11-19T01:00:36;9.47;;;6.67;;
4422;SDS011;2224;49.814;8.650;2023-11-19T01:03:01;8.57;;;6.80;;
4422;SDS011;2224;49.814;8.650;2023-11-19T01:05:27;8.10;;;6.37;;
4422;SDS011;2224;49.814;8.650;2023-11-19T01:07:53;5.90;;;5.30;;
4422;SDS011;2224;49.814;8.650;2023-11-19T01:10:19;8.63;;;6.70;;
4422;SDS011;2224;49.814;8.650;2023-11-19T01:12:44;7.57;;;6.07;;
4422;SDS011;2224;49.814;8.650;2023-11-19T01:15:10;7.27;;;6.50;;
4422;SDS011;2224;49.814;8.650;2023-11-19T01:17:36;8.27;;;6.80;;
4422;SDS011;2224;49.814;8.650;2023-11-19T01:20:05;6.90;;;5.83;;
4422;SDS011;2224;49.814;8.650;2023-11-19T01:22:31;6.93;;;6.23;;
4422;SDS011;2224;49.814;8.650;2023-11-19T01:24:57;8.00;;;6.00;;
4422;SDS011;2224;49.814;8.650;2023-11-19T01:27:23;8.77;;;5.77;;
4422;SDS011;2224;49.814;8.650;2023-11-19T01:29:48;7.60;;;6.17;;
4422;SDS011;2224;49.814;8.650;2023-11-19T01:32:14;6.43;;;5.23;;
4422;SDS011;2224;49.814;8.650;2023-11-19T01:34:39;7.00;;;5.90;;
4422;SDS011;2224;49.814;8.650;2023-11-19T01:37:05;5.57;;;4.83;;
4422;SDS011;2224;49.814;8.650;2023-11-19T01:39:31;5.43;;;4.93;;
4422;SDS011;2224;49.814;8.650;2023-11-19T01:41:56;5.07;;;4.50;;
4422;SDS011;2224;49.814;8.650;2023-11-19T01:44:22;5.03;;;4.50;;
4422;SDS011;2224;49.814;8.650;2023-11-19T01:46:49;4.83;;;4.33;;
4422;SDS011;2224;49.814;8.650;2023-11-19T01:49:17;4.70;;;4.20;;
4422;SDS011;2224;49.814;8.650;2023-11-19T01:51:44;7.10;;;4.30;;
4422;SDS011;2224;49.814;8.650;2023-11-19T01:54:11;3.63;;;3.33;;
4422;SDS011;2224;49.814;8.650;2023-11-19T01:56:40;3.77;;;3.47;;
4422;SDS011;2224;49.814;8.650;2023-11-19T01:59:07;4.00;;;3.60;;
4422;SDS011;2224;49.814;8.650;2023-11-19T02:01:35;3.63;;;3.27;;
4422;SDS011;2224;49.814;8.650;2023-11-19T02:04:05;3.90;;;3.60;;
4422;SDS011;2224;49.814;8.650;2023-11-19T02:06:34;4.10;;;3.63;;
4422;SDS011;2224;49.814;8.650;2023-11-19T02:09:03;4.63;;;3.67;;
4422;SDS011;2224;49.814;8.650;2023-11-19T02:11:32;4.20;;;3.00;;
4422;SDS011;2224;49.814;8.650;2023-11-19T02:14:00;3.60;;;3.30;;
4422;SDS011;2224;49.814;8.650;2023-11-19T02:16:27;4.13;;;3.20;;
4422;SDS011;2224;49.814;8.650;2023-11-19T02:18:54;3.40;;;3.10;;
4422;SDS011;2224;49.814;8.650;2023-11-19T02:21:21;4.10;;;3.10;;
4422;SDS011;2224;49.814;8.650;2023-11-19T02:23:47;3.13;;;2.83;;
4422;SDS011;2224;49.814;8.650;2023-11-19T02:29:04;3.60;;;3.07;;
4422;SDS011;2224;49.814;8.650;2023-11-19T02:31:31;2.83;;;2.60;;
4422;SDS011;2224;49.814;8.650;2023-11-19T02:33:57;3.23;;;2.93;;
4422;SDS011;2224;49.814;8.650;2023-11-19T02:36:22;3.80;;;3.20;;
4422;SDS011;2224;49.814;8.650;2023-11-19T02:38:47;5.43;;;3.40;;
4422;SDS011;2224;49.814;8.650;2023-11-19T02:41:13;3.47;;;3.17;;
4422;SDS011;2224;49.814;8.650;2023-11-19T02:43:39;2.70;;;2.50;;
4422;SDS011;2224;49.814;8.650;2023-11-19T02:46:04;4.00;;;2.60;;
4422;SDS011;2224;49.814;8.650;2023-11-19T02:48:33;3.10;;;2.80;;
4422;SDS011;2224;49.814;8.650;2023-11-19T02:51:02;2.87;;;2.67;;
4422;SDS011;2224;49.814;8.650;2023-11-19T02:53:34;2.60;;;2.40;;
4422;SDS011;2224;49.814;8.650;2023-11-19T02:55:59;2.33;;;1.97;;
4422;SDS011;2224;49.814;8.650;2023-11-19T02:58:36;4.50;;;3.27;;
4422;SDS011;2224;49.814;8.650;2023-11-19T03:01:02;3.57;;;3.27;;
4422;SDS011;2224;49.814;8.650;2023-11-19T03:03:37;3.13;;;2.83;;
4422;SDS011;2224;49.814;8.650;2023-11-19T03:06:06;4.70;;;3.77;;
4422;SDS011;2224;49.814;8.650;2023-11-19T03:08:32;3.60;;;3.30;;
4422;SDS011;2224;49.814;8.650;2023-11-19T03:10:59;2.77;;;2.57;;
4422;SDS011;2224;49.814;8.650;2023-11-19T03:13:25;3.47;;;3.10;;
4422;SDS011;2224;49.814;8.650;2023-11-19T03:15:50;5.00;;;3.80;;
4422;SDS011;2224;49.814;8.650;2023-11-19T03:18:16;3.40;;;3.10;;
4422;SDS011;2224;49.814;8.650;2023-11-19T03:20:41;4.47;;;3.47;;
4422;SDS011;2224;49.814;8.650;2023-11-19T03:23:07;3.90;;;3.60;;
4422;SDS011;2224;49.814;8.650;2023-11-19T03:25:32;4.27;;;3.87;;
4422;SDS011;2224;49.814;8.650;2023-11-19T03:28:02;3.80;;;3.47;;
4422;SDS011;2224;49.814;8.650;2023-11-19T03:30:28;4.20;;;3.50;;
4422;SDS011;2224;49.814;8.650;2023-11-19T03:32:55;4.03;;;3.60;;
4422;SDS011;2224;49.814;8.650;2023-11-19T03:35:20;4.73;;;3.70;;
4422;SDS011;2224;49.814;8.650;2023-11-19T03:37:46;3.97;;;3.57;;
4422;SDS011;2224;49.814;8.650;2023-11-19T03:40:11;6.20;;;4.70;;
4422;SDS011;2224;49.814;8.650;2023-11-19T03:42:37;5.10;;;4.40;;
4422;SDS011;2224;49.814;8.650;2023-11-19T03:45:04;6.10;;;5.03;;
4422;SDS011;2224;49.814;8.650;2023-11-19T03:47:36;5.37;;;4.87;;
4422;SDS011;2224;49.814;8.650;2023-11-19T03:50:01;6.00;;;5.50;;
4422;SDS011;2224;49.814;8.650;2023-11-19T03:52:27;6.30;;;5.37;;
4422;SDS011;2224;49.814;8.650;2023-11-19T03:54:54;6.07;;;5.47;;
4422;SDS011;2224;49.814;8.650;2023-11-19T03:57:20;6.67;;;5.97;;
4422;SDS011;2224;49.814;8.650;2023-11-19T03:59:46;6.70;;;5.90;;
4422;SDS011;2224;49.814;8.650;2023-11-19T04:02:11;6.93;;;6.23;;
4422;SDS011;2224;49.814;8.650;2023-11-19T04:04:36;6.50;;;5.90;;
4422;SDS011;2224;49.814;8.650;2023-11-19T04:07:03;7.77;;;6.17;;
4422;SDS011;2224;49.814;8.650;2023-11-19T04:09:29;7.77;;;6.63;;
4422;SDS011;2224;49.814;8.650;2023-11-19T04:11:54;7.87;;;5.63;;
4422;SDS011;2224;49.814;8.650;2023-11-19T04:14:20;6.73;;;5.50;;
4422;SDS011;2224;49.814;8.650;2023-11-19T04:16:45;8.70;;;5.73;;
4422;SDS011;2224;49.814;8.650;2023-11-19T04:19:11;6.73;;;5.97;;
4422;SDS011;2224;49.814;8.650;2023-11-19T04:21:37;6.03;;;5.43;;
4422;SDS011;2224;49.814;8.650;2023-11-19T04:24:04;5.73;;;5.13;;
4422;SDS011;2224;49.814;8.650;2023-11-19T04:26:30;5.37;;;4.87;;
4422;SDS011;2224;49.814;8.650;2023-11-19T04:28:56;5.67;;;4.87;;
4422;SDS011;2224;49.814;8.650;2023-11-19T04:31:21;5.67;;;5.00;;
4422;SDS011;2224;49.814;8.650;2023-11-19T04:33:46;6.07;;;5.47;;
4422;SDS011;2224;49.814;8.650;2023-11-19T04:36:12;8.23;;;6.27;;
4422;SDS011;2224;49.814;8.650;2023-11-19T04:38:39;7.43;;;6.63;;
4422;SDS011;2224;49.814;8.650;2023-11-19T04:41:05;8.67;;;6.30;;
4422;SDS011;2224;49.814;8.650;2023-11-19T04:43:31;11.00;;;6.37;;
4422;SDS011;2224;49.814;8.650;2023-11-19T04:45:56;6.20;;;5.60;;
4422;SDS011;2224;49.814;8.650;2023-11-19T04:48:22;7.30;;;6.00;;
4422;SDS011;2224;49.814;8.650;2023-11-19T04:50:48;7.03;;;6.20;;
4422;SDS011;2224;49.814;8.650;2023-11-19T04:53:13;8.83;;;7.13;;
4422;SDS011;2224;49.814;8.650;2023-11-19T04:55:40;7.80;;;6.60;;
4422;SDS011;2224;49.814;8.650;2023-11-19T04:58:06;6.80;;;6.10;;
4422;SDS011;2224;49.814;8.650;2023-11-19T05:00:32;8.77;;;7.20;;
4422;SDS011;2224;49.814;8.650;2023-11-19T05:02:57;8.90;;;6.53;;
4422;SDS011;2224;49.814;8.650;2023-11-19T05:05:22;9.80;;;7.63;;
4422;SDS011;2224;49.814;8.650;2023-11-19T05:07:48;8.23;;;7.30;;
4422;SDS011;2224;49.814;8.650;2023-11-19T05:10:13;7.93;;;6.90;;
4422;SDS011;2224;49.814;8.650;2023-11-19T05:12:39;9.47;;;7.00;;
4422;SDS011;2224;49.814;8.650;2023-11-19T05:15:04;10.77;;;8.43;;
4422;SDS011;2224;49.814;8.650;2023-11-19T05:17:30;8.53;;;7.37;;
4422;SDS011;2224;49.814;8.650;2023-11-19T05:19:56;10.03;;;8.67;;
4422;SDS011;2224;49.814;8.650;2023-11-19T05:22:21;11.70;;;8.20;;
4422;SDS011;2224;49.814;8.650;2023-11-19T05:24:47;9.07;;;7.73;;
4422;SDS011;2224;49.814;8.650;2023-11-19T05:27:13;11.57;;;8.83;;
4422;SDS011;2224;49.814;8.650;2023-11-19T05:29:39;8.33;;;7.40;;
4422;SDS011;2224;49.814;8.650;2023-11-19T05:32:06;10.33;;;8.60;;
4422;SDS011;2224;49.814;8.650;2023-11-19T05:34:32;9.33;;;7.53;;
4422;SDS011;2224;49.814;8.650;2023-11-19T05:36:57;9.00;;;7.87;;
4422;SDS011;2224;49.814;8.650;2023-11-19T05:39:22;10.67;;;8.70;;
4422;SDS011;2224;49.814;8.650;2023-11-19T05:41:49;11.27;;;9.23;;
4422;SDS011;2224;49.814;8.650;2023-11-19T05:44:14;11.00;;;9.63;;
4422;SDS011;2224;49.814;8.650;2023-11-19T05:46:39;13.93;;;7.83;;
4422;SDS011;2224;49.814;8.650;2023-11-19T05:49:07;11.10;;;8.20;;
4422;SDS011;2224;49.814;8.650;2023-11-19T05:51:36;9.60;;;7.53;;
4422;SDS011;2224;49.814;8.650;2023-11-19T05:54:02;8.07;;;7.10;;
4422;SDS011;2224;49.814;8.650;2023-11-19T05:56:27;11.07;;;8.57;;
4422;SDS011;2224;49.814;8.650;2023-11-19T05:58:57;10.83;;;9.13;;
4422;SDS011;2224;49.814;8.650;2023-11-19T06:01:22;12.20;;;9.00;;
4422;SDS011;2224;49.814;8.650;2023-11-19T06:03:48;9.43;;;7.30;;
4422;SDS011;2224;49.814;8.650;2023-11-19T06:06:15;8.97;;;7.37;;
4422;SDS011;2224;49.814;8.650;2023-11-19T06:08:40;9.60;;;7.70;;
4422;SDS011;2224;49.814;8.650;2023-11-19T06:11:05;8.80;;;7.90;;
4422;SDS011;2224;49.814;8.650;2023-11-19T06:13:31;12.20;;;7.40;;
4422;SDS011;2224;49.814;8.650;2023-11-19T06:15:56;8.37;;;7.40;;
4422;SDS011;2224;49.814;8.650;2023-11-19T06:18:22;9.00;;;7.70;;
4422;SDS011;2224;49.814;8.650;2023-11-19T06:20:48;9.77;;;8.23;;
4422;SDS011;2224;49.814;8.650;2023-11-19T06:23:14;11.40;;;8.37;;
4422;SDS011;2224;49.814;8.650;2023-11-19T06:25:40;11.07;;;7.97;;
4422;SDS011;2224;49.814;8.650;2023-11-19T06:28:05;12.60;;;8.80;;
4422;SDS011;2224;49.814;8.650;2023-11-19T06:30:30;12.37;;;9.80;;
4422;SDS011;2224;49.814;8.650;2023-11-19T06:32:57;17.80;;;9.93;;
4422;SDS011;2224;49.814;8.650;2023-11-19T06:35:23;11.63;;;9.00;;
4422;SDS011;2224;49.814;8.650;2023-11-19T06:37:48;13.17;;;9.67;;
4422;SDS011;2224;49.814;8.650;2023-11-19T06:40:13;17.07;;;10.57;;
4422;SDS011;2224;49.814;8.650;2023-11-19T06:42:40;14.73;;;9.53;;
4422;SDS011;2224;49.814;8.650;2023-11-19T06:45:06;12.67;;;10.00;;
4422;SDS011;2224;49.814;8.650;2023-11-19T06:47:32;11.43;;;8.90;;
4422;SDS011;2224;49.814;8.650;2023-11-19T06:49:58;13.50;;;8.73;;
4422;SDS011;2224;49.814;8.650;2023-11-19T06:52:24;10.60;;;8.53;;
4422;SDS011;2224;49.814;8.650;2023-11-19T06:54:50;9.47;;;8.47;;
4422;SDS011;2224;49.814;8.650;2023-11-19T06:57:16;11.83;;;9.63;;
4422;SDS011;2224;49.814;8.650;2023-11-19T06:59:41;13.30;;;10.13;;
4422;SDS011;2224;49.814;8.650;2023-11-19T07:02:07;12.67;;;9.40;;
4422;SDS011;2224;49.814;8.650;2023-11-19T07:04:32;13.30;;;9.80;;
4422;SDS011;2224;49.814;8.650;2023-11-19T07:07:00;13.07;;;10.80;;
4422;SDS011;2224;49.814;8.650;2023-11-19T07:09:26;19.13;;;11.73;;
4422;SDS011;2224;49.814;8.650;2023-11-19T07:11:51;15.03;;;11.20;;
4422;SDS011;2224;49.814;8.650;2023-11-19T07:14:17;14.87;;;10.50;;
4422;SDS011;2224;49.814;8.650;2023-11-19T07:16:43;13.60;;;11.00;;
4422;SDS011;2224;49.814;8.650;2023-11-19T07:19:08;15.90;;;11.03;;
4422;SDS011;2224;49.814;8.650;2023-11-19T07:21:34;13.57;;;10.00;;
4422;SDS011;2224;49.814;8.650;2023-11-19T07:24:00;13.40;;;9.43;;
4422;SDS011;2224;49.814;8.650;2023-11-19T07:26:25;15.27;;;9.20;;
4422;SDS011;2224;49.814;8.650;2023-11-19T07:28:52;8.70;;;7.70;;
4422;SDS011;2224;49.814;8.650;2023-11-19T07:31:17;10.07;;;8.20;;
4422;SDS011;2224;49.814;8.650;2023-11-19T07:33:45;10.60;;;8.47;;
4422;SDS011;2224;49.814;8.650;2023-11-19T07:36:11;9.10;;;6.90;;
4422;SDS011;2224;49.814;8.650;2023-11-19T07:38:37;8.27;;;7.03;;
4422;SDS011;2224;49.814;8.650;2023-11-19T07:41:03;8.23;;;6.10;;
4422;SDS011;2224;49.814;8.650;2023-11-19T07:43:30;7.20;;;5.93;;
4422;SDS011;2224;49.814;8.650;2023-11-19T07:45:55;6.87;;;5.03;;
4422;SDS011;2224;49.814;8.650;2023-11-19T07:48:20;5.27;;;4.77;;
4422;SDS011;2224;49.814;8.650;2023-11-19T07:50:48;5.97;;;5.37;;
4422;SDS011;2224;49.814;8.650;2023-11-19T07:53:17;9.13;;;6.17;;
4422;SDS011;2224;49.814;8.650;2023-11-19T07:55:42;8.07;;;5.63;;
4422;SDS011;2224;49.814;8.650;2023-11-19T07:58:08;6.50;;;5.40;;
4422;SDS011;2224;49.814;8.650;2023-11-19T08:00:34;5.87;;;5.23;;
4422;SDS011;2224;49.814;8.650;2023-11-19T08:02:59;5.47;;;4.83;;
4422;SDS011;2224;49.814;8.650;2023-11-19T08:05:25;8.43;;;5.50;;
4422;SDS011;2224;49.814;8.650;2023-11-19T08:07:50;6.80;;;5.40;;
4422;SDS011;2224;49.814;8.650;2023-11-19T08:10:18;6.07;;;5.17;;
4422;SDS011;2224;49.814;8.650;2023-11-19T08:12:43;6.30;;;5.70;;
4422;SDS011;2224;49.814;8.650;2023-11-19T08:15:09;6.97;;;5.63;;
4422;SDS011;2224;49.814;8.650;2023-11-19T08:17:34;6.10;;;4.93;;
4422;SDS011;2224;49.814;8.650;2023-11-19T08:19:59;6.33;;;4.90;;
4422;SDS011;2224;49.814;8.650;2023-11-19T08:22:25;7.43;;;5.93;;
4422;SDS011;2224;49.814;8.650;2023-11-19T08:24:50;4.97;;;4.50;;
4422;SDS011;2224;49.814;8.650;2023-11-19T08:27:15;5.80;;;5.10;;
4422;SDS011;2224;49.814;8.650;2023-11-19T08:29:41;4.50;;;4.10;;
4422;SDS011;2224;49.814;8.650;2023-11-19T08:32:06;6.23;;;4.53;;
4422;SDS011;2224;49.814;8.650;2023-11-19T08:34:32;4.93;;;4.43;;
4422;SDS011;2224;49.814;8.650;2023-11-19T08:36:57;5.77;;;4.30;;
4422;SDS011;2224;49.814;8.650;2023-11-19T08:39:22;9.67;;;4.53;;
4422;SDS011;2224;49.814;8.650;2023-11-19T08:41:48;5.93;;;5.37;;
4422;SDS011;2224;49.814;8.650;2023-11-19T08:44:14;8.87;;;5.30;;
4422;SDS011;2224;49.814;8.650;2023-11-19T08:46:45;6.17;;;4.83;;
4422;SDS011;2224;49.814;8.650;2023-11-19T08:49:12;8.40;;;4.40;;
4422;SDS011;2224;49.814;8.650;2023-11-19T08:51:37;5.50;;;4.73;;
4422;SDS011;2224;49.814;8.650;2023-11-19T08:54:02;5.23;;;4.73;;
4422;SDS011;2224;49.814;8.650;2023-11-19T08:56:28;5.40;;;4.90;;
4422;SDS011;2224;49.814;8.650;2023-11-19T08:58:57;4.53;;;4.13;;
4422;SDS011;2224;49.814;8.650;2023-11-19T09:01:22;6.93;;;4.30;;
4422;SDS011;2224;49.814;8.650;2023-11-19T09:03:49;5.00;;;4.50;;
4422;SDS011;2224;49.814;8.650;2023-11-19T09:06:14;5.93;;;4.40;;
4422;SDS011;2224;49.814;8.650;2023-11-19T09:08:40;6.63;;;4.93;;
4422;SDS011;2224;49.814;8.650;2023-11-19T09:11:07;5.60;;;4.40;;
4422;SDS011;2224;49.814;8.650;2023-11-19T09:13:33;7.37;;;5.40;;
4422;SDS011;2224;49.814;8.650;2023-11-19T09:15:59;13.00;;;4.70;;
4422;SDS011;2224;49.814;8.650;2023-11-19T09:18:28;7.30;;;4.47;;
4422;SDS011;2224;49.814;8.650;2023-11-19T09:20:53;4.57;;;4.13;;
4422;SDS011;2224;49.814;8.650;2023-11-19T09:23:19;5.27;;;4.20;;
4422;SDS011;2224;49.814;8.650;2023-11-19T09:25:44;5.10;;;3.60;;
4422;SDS011;2224;49.814;8.650;2023-11-19T09:28:10;3.93;;;3.50;;
4422;SDS011;2224;49.814;8.650;2023-11-19T09:30:35;5.50;;;4.03;;
4422;SDS011;2224;49.814;8.650;2023-11-19T09:33:01;4.20;;;3.80;;
4422;SDS011;2224;49.814;8.650;2023-11-19T09:35:26;3.37;;;3.07;;
4422;SDS011;2224;49.814;8.650;2023-11-19T09:37:51;4.17;;;3.40;;
4422;SDS011;2224;49.814;8.650;2023-11-19T09:40:17;4.13;;;3.30;;
4422;SDS011;2224;49.814;8.650;2023-11-19T09:42:44;4.73;;;3.50;;
4422;SDS011;2224;49.814;8.650;2023-11-19T09:45:13;8.10;;;3.60;;
4422;SDS011;2224;49.814;8.650;2023-11-19T09:47:40;5.13;;;4.10;;
4422;SDS011;2224;49.814;8.650;2023-11-19T09:50:11;6.77;;;4.90;;
4422;SDS011;2224;49.814;8.650;2023-11-19T09:52:41;5.97;;;5.47;;
4422;SDS011;2224;49.814;8.650;2023-11-19T09:55:06;6.10;;;5.50;;
4422;SDS011;2224;49.814;8.650;2023-11-19T09:57:32;6.07;;;5.47;;
4422;SDS011;2224;49.814;8.650;2023-11-19T09:59:59;7.23;;;6.53;;
4422;SDS011;2224;49.814;8.650;2023-11-19T10:02:24;8.30;;;5.43;;
4422;SDS011;2224;49.814;8.650;2023-11-19T10:04:51;6.57;;;5.80;;
4422;SDS011;2224;49.814;8.650;2023-11-19T10:07:17;6.43;;;5.80;;
4422;SDS011;2224;49.814;8.650;2023-11-19T10:09:43;5.83;;;5.23;;
4422;SDS011;2224;49.814;8.650;2023-11-19T10:12:08;8.40;;;5.17;;
4422;SDS011;2224;49.814;8.650;2023-11-19T10:14:33;9.33;;;4.83;;
4422;SDS011;2224;49.814;8.650;2023-11-19T10:17:01;4.07;;;3.70;;
4422;SDS011;2224;49.814;8.650;2023-11-19T10:19:29;4.73;;;4.07;;
4422;SDS011;2224;49.814;8.650;2023-11-19T10:21:54;6.20;;;4.20;;
4422;SDS011;2224;49.814;8.650;2023-11-19T10:24:31;5.70;;;5.20;;
4422;SDS011;2224;49.814;8.650;2023-11-19T10:26:58;7.50;;;5.30;;
4422;SDS011;2224;49.814;8.650;2023-11-19T10:29:24;7.13;;;5.50;;
4422;SDS011;2224;49.814;8.650;2023-11-19T10:31:56;6.33;;;4.40;;
4422;SDS011;2224;49.814;8.650;2023-11-19T10:34:25;6.10;;;4.10;;
4422;SDS011;2224;49.814;8.650;2023-11-19T10:36:51;6.10;;;3.97;;
4422;SDS011;2224;49.814;8.650;2023-11-19T10:39:16;6.20;;;4.70;;
4422;SDS011;2224;49.814;8.650;2023-11-19T10:41:43;5.90;;;4.70;;
4422;SDS011;2224;49.814;8.650;2023-11-19T10:44:08;5.20;;;4.53;;
4422;SDS011;2224;49.814;8.650;2023-11-19T10:46:40;7.03;;;5.03;;
4422;SDS011;2224;49.814;8.650;2023-11-19T10:49:09;12.60;;;8.80;;
4422;SDS011;2224;49.814;8.650;2023-11-19T10:51:35;6.73;;;5.17;;
4422;SDS011;2224;49.814;8.650;2023-11-19T10:54:04;6.87;;;5.63;;
4422;SDS011;2224;49.814;8.650;2023-11-19T10:56:30;11.43;;;7.47;;
4422;SDS011;2224;49.814;8.650;2023-11-19T10:58:57;8.87;;;3.93;;
4422;SDS011;2224;49.814;8.650;2023-11-19T11:01:24;7.10;;;4.23;;
4422;SDS011;2224;49.814;8.650;2023-11-19T11:04:00;11.33;;;4.50;;
4422;SDS011;2224;49.814;8.650;2023-11-19T11:06:29;5.30;;;4.10;;
4422;SDS011;2224;49.814;8.650;2023-11-19T11:08:55;7.70;;;3.70;;
4422;SDS011;2224;49.814;8.650;2023-11-19T11:11:21;7.10;;;3.27;;
4422;SDS011;2224;49.814;8.650;2023-11-19T11:13:47;5.83;;;3.53;;
4422;SDS011;2224;49.814;8.650;2023-11-19T11:16:15;3.13;;;2.90;;
4422;SDS011;2224;49.814;8.650;2023-11-19T11:18:43;5.90;;;3.07;;
4422;SDS011;2224;49.814;8.650;2023-11-19T11:21:11;3.37;;;2.40;;
4422;SDS011;2224;49.814;8.650;2023-11-19T11:40:32;2.60;;;2.17;;
4422;SDS011;2224;49.814;8.650;2023-11-19T11:42:57;3.13;;;2.60;;
4422;SDS011;2224;49.814;8.650;2023-11-19T11:45:36;7.60;;;2.10;;
4422;SDS011;2224;49.814;8.650;2023-11-19T11:48:08;3.67;;;1.93;;
4422;SDS011;2224;49.814;8.650;2023-11-19T11:50:36;5.30;;;2.50;;
4422;SDS011;2224;49.814;8.650;2023-11-19T11:53:21;3.40;;;2.40;;
4422;SDS011;2224;49.814;8.650;2023-11-19T11:58:20;3.50;;;2.63;;
4422;SDS011;2224;49.814;8.650;2023-11-19T12:00:47;5.00;;;3.03;;
4422;SDS011;2224;49.814;8.650;2023-11-19T12:03:13;3.47;;;2.60;;
4422;SDS011;2224;49.814;8.650;2023-11-19T12:05:39;5.27;;;2.47;;
4422;SDS011;2224;49.814;8.650;2023-11-19T12:08:06;4.00;;;1.80;;
4422;SDS011;2224;49.814;8.650;2023-11-19T12:10:36;6.63;;;2.10;;
4422;SDS011;2224;49.814;8.650;2023-11-19T12:13:09;4.97;;;1.67;;
4422;SDS011;2224;49.814;8.650;2023-11-19T12:18:21;3.33;;;1.67;;
4422;SDS011;2224;49.814;8.650;2023-11-19T12:20:48;6.90;;;1.60;;
4422;SDS011;2224;49.814;8.650;2023-11-19T12:23:13;3.20;;;1.20;;
4422;SDS011;2224;49.814;8.650;2023-11-19T12:25:39;3.83;;;2.10;;
4422;SDS011;2224;49.814;8.650;2023-11-19T12:28:05;5.33;;;1.63;;
4422;SDS011;2224;49.814;8.650;2023-11-19T12:30:30;7.57;;;2.90;;
4422;SDS011;2224;49.814;8.650;2023-11-19T12:32:56;4.00;;;1.50;;
4422;SDS011;2224;49.814;8.650;2023-11-19T12:35:21;6.23;;;1.50;;
4422;SDS011;2224;49.814;8.650;2023-11-19T12:37:48;4.33;;;1.40;;
4422;SDS011;2224;49.814;8.650;2023-11-19T12:40:17;4.90;;;1.53;;
4422;SDS011;2224;49.814;8.650;2023-11-19T12:42:48;4.50;;;1.27;;
4422;SDS011;2224;49.814;8.650;2023-11-19T12:45:13;4.03;;;1.20;;
4422;SDS011;2224;49.814;8.650;2023-11-19T12:47:48;2.50;;;1.37;;
4422;SDS011;2224;49.814;8.650;2023-11-19T12:50:14;3.50;;;1.40;;
4422;SDS011;2224;49.814;8.650;2023-11-19T12:52:40;2.60;;;1.80;;
4422;SDS011;2224;49.814;8.650;2023-11-19T12:55:24;2.80;;;1.20;;
4422;SDS011;2224;49.814;8.650;2023-11-19T12:57:58;3.73;;;1.17;;
4422;SDS011;2224;49.814;8.650;2023-11-19T13:00:24;2.93;;;1.47;;
4422;SDS011;2224;49.814;8.650;2023-11-19T13:02:51;3.63;;;1.40;;
4422;SDS011;2224;49.814;8.650;2023-11-19T13:05:33;3.50;;;1.43;;
4422;SDS011;2224;49.814;8.650;2023-11-19T13:08:05;5.50;;;1.63;;
4422;SDS011;2224;49.814;8.650;2023-11-19T13:10:32;4.60;;;1.37;;
4422;SDS011;2224;49.814;8.650;2023-11-19T13:13:04;3.33;;;1.70;;
4422;SDS011;2224;49.814;8.650;2023-11-19T13:15:32;5.67;;;1.77;;
4422;SDS011;2224;49.814;8.650;2023-11-19T13:17:58;4.60;;;1.40;;
4422;SDS011;2224;49.814;8.650;2023-11-19T13:20:23;6.03;;;1.60;;
4422;SDS011;2224;49.814;8.650;2023-11-19T13:25:24;3.13;;;1.30;;
4422;SDS011;2224;49.814;8.650;2023-11-19T13:27:50;4.73;;;1.33;;
4422;SDS011;2224;49.814;8.650;2023-11-19T13:30:15;4.37;;;1.33;;
4422;SDS011;2224;49.814;8.650;2023-11-19T13:32:41;4.70;;;1.37;;
4422;SDS011;2224;49.814;8.650;2023-11-19T13:35:07;8.33;;;1.50;;
4422;SDS011;2224;49.814;8.650;2023-11-19T13:37:33;7.70;;;1.60;;
4422;SDS011;2224;49.814;8.650;2023-11-19T13:39:59;4.10;;;1.33;;
4422;SDS011;2224;49.814;8.650;2023-11-19T13:42:24;6.50;;;1.77;;
4422;SDS011;2224;49.814;8.650;2023-11-19T13:44:50;4.30;;;1.60;;
4422;SDS011;2224;49.814;8.650;2023-11-19T13:47:15;8.77;;;1.43;;
4422;SDS011;2224;49.814;8.650;2023-11-19T13:49:40;4.63;;;1.50;;
4422;SDS011;2224;49.814;8.650;2023-11-19T13:52:06;6.10;;;2.00;;
4422;SDS011;2224;49.814;8.650;2023-11-19T13:54:31;5.20;;;1.77;;
4422;SDS011;2224;49.814;8.650;2023-11-19T13:56:56;5.07;;;1.60;;
4422;SDS011;2224;49.814;8.650;2023-11-19T13:59:25;9.80;;;2.20;;
4422;SDS011;2224;49.814;8.650;2023-11-19T14:01:52;7.67;;;2.13;;
4422;SDS011;2224;49.814;8.650;2023-11-19T14:04:17;5.17;;;2.53;;
4422;SDS011;2224;49.814;8.650;2023-11-19T14:06:44;7.37;;;2.30;;
4422;SDS011;2224;49.814;8.650;2023-11-19T14:09:10;6.33;;;2.10;;
4422;SDS011;2224;49.814;8.650;2023-11-19T14:11:35;4.87;;;1.63;;
4422;SDS011;2224;49.814;8.650;2023-11-19T14:14:01;2.57;;;1.50;;
4422;SDS011;2224;49.814;8.650;2023-11-19T14:16:26;3.80;;;2.20;;
4422;SDS011;2224;49.814;8.650;2023-11-19T14:18:52;5.90;;;2.73;;
4422;SDS011;2224;49.814;8.650;2023-11-19T14:21:17;4.60;;;3.13;;
4422;SDS011;2224;49.814;8.650;2023-11-19T14:23:43;6.13;;;2.30;;
4422;SDS011;2224;49.814;8.650;2023-11-19T14:26:08;6.30;;;3.13;;
4422;SDS011;2224;49.814;8.650;2023-11-19T14:28:33;9.43;;;2.27;;
4422;SDS011;2224;49.814;8.650;2023-11-19T14:30:59;5.47;;;2.27;;
4422;SDS011;2224;49.814;8.650;2023-11-19T14:33:24;4.87;;;2.17;;
4422;SDS011;2224;49.814;8.650;2023-11-19T14:35:50;4.50;;;2.10;;
4422;SDS011;2224;49.814;8.650;2023-11-19T14:38:15;7.23;;;2.70;;
4422;SDS011;2224;49.814;8.650;2023-11-19T14:40:41;3.33;;;1.33;;
4422;SDS011;2224;49.814;8.650;2023-11-19T14:43:07;4.40;;;2.23;;
4422;SDS011;2224;49.814;8.650;2023-11-19T14:45:35;5.20;;;1.50;;
4422;SDS011;2224;49.814;8.650;2023-11-19T14:48:00;4.17;;;1.83;;
4422;SDS011;2224;49.814;8.650;2023-11-19T14:50:26;5.13;;;1.60;;
4422;SDS011;2224;49.814;8.650;2023-11-19T14:52:51;5.57;;;1.33;;
4422;SDS011;2224;49.814;8.650;2023-11-19T14:55:16;5.13;;;1.90;;
4422;SDS011;2224;49.814;8.650;2023-11-19T14:57:42;6.17;;;1.83;;
4422;SDS011;2224;49.814;8.650;2023-11-19T15:00:09;5.90;;;1.80;;
4422;SDS011;2224;49.814;8.650;2023-11-19T15:02:40;3.17;;;1.47;;
4422;SDS011;2224;49.814;8.650;2023-11-19T15:05:06;6.10;;;1.93;;
4422;SDS011;2224;49.814;8.650;2023-11-19T15:07:34;3.70;;;1.83;;
4422;SDS011;2224;49.814;8.650;2023-11-19T15:10:00;3.73;;;1.87;;
4422;SDS011;2224;49.814;8.650;2023-11-19T15:12:26;3.50;;;1.80;;
4422;SDS011;2224;49.814;8.650;2023-11-19T15:14:52;4.87;;;1.43;;
4422;SDS011;2224;49.814;8.650;2023-11-19T15:17:18;3.80;;;1.30;;
4422;SDS011;2224;49.814;8.650;2023-11-19T15:19:43;4.10;;;1.33;;
4422;SDS011;2224;49.814;8.650;2023-11-19T15:22:10;5.00;;;2.67;;
4422;SDS011;2224;49.814;8.650;2023-11-19T15:24:36;3.77;;;1.40;;
4422;SDS011;2224;49.814;8.650;2023-11-19T15:27:04;4.20;;;1.50;;
4422;SDS011;2224;49.814;8.650;2023-11-19T15:29:29;6.97;;;1.70;;
4422;SDS011;2224;49.814;8.650;2023-11-19T15:31:55;3.87;;;1.47;;
4422;SDS011;2224;49.814;8.650;2023-11-19T15:34:21;4.93;;;1.30;;
4422;SDS011;2224;49.814;8.650;2023-11-19T15:36:46;7.00;;;1.80;;